Dades meteomassalio
Diari Summary for Febrer 9, 2017 Units:  Metric    English   Both
« Previous Day
Next Day »
Diari Semanal Mensual Anual Personalitzat
  Maxima: Minima: Mijana:
Temperatura: 13.1 °C 3.0 °C 6.7 °C
Rosada: 2.6 °C -1.3 °C 1 °C
Humitat: 84 % 37 % 69 %
Velocitat del vent: 44.4 km/h 0.0 km/h 14 km/h
Racha vent: 44.4 km/h - -
Vent:- - WNW
Pressio: 1024.9 hPa 1016.5 hPa -
Pluja: 0.0 mm    
Historical Graphs
 
 
Tabular Data for Febrer 9, 2017
Time Temperature Dew Point Pressure Wind Wind Speed Wind Gust Humidity Rainfall Rate (Hourly) solar Conditions
00:03 5.4 °C 1.8 °C 1024.6 hPa NW 40.7 km/h 40.7 km/h 78 % 0.0 mm 0.0 W/m2 CLR
00:08 5.4 °C 1.8 °C 1024.6 hPa NW 35.2 km/h 35.2 km/h 78 % 0.0 mm 0.0 W/m2 CLR
00:13 5.4 °C 1.8 °C 1024.6 hPa NW 42.6 km/h 42.6 km/h 78 % 0.0 mm 0.0 W/m2 CLR
00:18 5.3 °C 1.8 °C 1024.6 hPa NW 38.9 km/h 38.9 km/h 78 % 0.0 mm 0.0 W/m2 CLR
00:23 5.4 °C 1.8 °C 1024.9 hPa NW 31.5 km/h 31.5 km/h 78 % 0.0 mm 0.0 W/m2 CLR
00:28 5.3 °C 1.8 °C 1024.6 hPa NW 42.6 km/h 42.6 km/h 78 % 0.0 mm 0.0 W/m2 CLR
00:33 5.4 °C 1.8 °C 1024.9 hPa NW 25.9 km/h 25.9 km/h 78 % 0.0 mm 0.0 W/m2 CLR
00:38 5.3 °C 1.8 °C 1024.9 hPa NW 30.6 km/h 30.6 km/h 78 % 0.0 mm 0.0 W/m2 CLR
00:43 5.4 °C 1.8 °C 1024.9 hPa NW 42.6 km/h 42.6 km/h 78 % 0.0 mm 0.0 W/m2 CLR
00:48 5.4 °C 1.9 °C 1024.9 hPa NW 40.7 km/h 40.7 km/h 78 % 0.0 mm 0.0 W/m2 CLR
00:53 5.4 °C 1.8 °C 1024.9 hPa NW 37.0 km/h 37.0 km/h 78 % 0.0 mm 0.0 W/m2 CLR
00:58 5.4 °C 1.7 °C 1024.9 hPa NW 31.5 km/h 31.5 km/h 77 % 0.0 mm 0.0 W/m2 CLR
01:03 5.4 °C 1.8 °C 1024.9 hPa NW 31.5 km/h 31.5 km/h 78 % 0.0 mm 0.0 W/m2 CLR
01:08 5.3 °C 1.8 °C 1024.6 hPa NW 27.8 km/h 27.8 km/h 78 % 0.0 mm 0.0 W/m2 CLR
01:13 5.3 °C 1.8 °C 1024.6 hPa NW 32.2 km/h 32.2 km/h 78 % 0.0 mm 0.0 W/m2 CLR
01:18 5.3 °C 1.8 °C 1024.6 hPa NW 29.6 km/h 29.6 km/h 78 % 0.0 mm 0.0 W/m2 CLR
01:23 5.2 °C 1.9 °C 1024.6 hPa NW 29.6 km/h 29.6 km/h 79 % 0.0 mm 0.0 W/m2 CLR
01:28 5.3 °C 1.9 °C 1024.6 hPa NW 31.5 km/h 31.5 km/h 79 % 0.0 mm 0.0 W/m2 CLR
01:33 5.2 °C 1.9 °C 1024.6 hPa NW 35.2 km/h 35.2 km/h 79 % 0.0 mm 0.0 W/m2 CLR
01:38 5.1 °C 1.8 °C 1024.6 hPa NW 27.8 km/h 27.8 km/h 79 % 0.0 mm 0.0 W/m2 CLR
01:43 5.1 °C 1.8 °C 1024.6 hPa NW 24.1 km/h 24.1 km/h 79 % 0.0 mm 0.0 W/m2 CLR
01:48 5.2 °C 1.8 °C 1024.6 hPa NW 38.9 km/h 38.9 km/h 79 % 0.0 mm 0.0 W/m2 CLR
01:53 5.2 °C 1.8 °C 1024.6 hPa NW 31.5 km/h 31.5 km/h 79 % 0.0 mm 0.0 W/m2 CLR
01:58 5.1 °C 1.6 °C 1024.3 hPa NW 32.2 km/h 32.2 km/h 78 % 0.0 mm 0.0 W/m2 CLR
02:03 5.2 °C 1.7 °C 1024.3 hPa NW 35.2 km/h 35.2 km/h 78 % 0.0 mm 0.0 W/m2 CLR
02:08 5.2 °C 1.7 °C 1024.3 hPa NW 42.6 km/h 42.6 km/h 78 % 0.0 mm 0.0 W/m2 CLR
02:13 5.1 °C 1.6 °C 1024.3 hPa NW 42.6 km/h 42.6 km/h 78 % 0.0 mm 0.0 W/m2 CLR
02:18 5.1 °C 1.6 °C 1024.3 hPa NW 33.8 km/h 33.8 km/h 78 % 0.0 mm 0.0 W/m2 CLR
02:23 5.1 °C 1.6 °C 1024.3 hPa NW 38.6 km/h 38.6 km/h 78 % 0.0 mm 0.0 W/m2 CLR
02:28 5.1 °C 1.6 °C 1024.3 hPa NW 44.4 km/h 44.4 km/h 78 % 0.0 mm 0.0 W/m2 CLR
02:33 5.2 °C 1.7 °C 1024.3 hPa NW 33.8 km/h 33.8 km/h 78 % 0.0 mm 0.0 W/m2 CLR
02:38 5.2 °C 1.7 °C 1024.3 hPa NW 42.6 km/h 42.6 km/h 78 % 0.0 mm 0.0 W/m2 CLR
02:43 5.1 °C 1.6 °C 1024.3 hPa NW 40.7 km/h 40.7 km/h 78 % 0.0 mm 0.0 W/m2 CLR
02:48 5.1 °C 1.6 °C 1024.3 hPa NW 43.4 km/h 43.4 km/h 78 % 0.0 mm 0.0 W/m2 CLR
02:53 5.1 °C 1.6 °C 1024.3 hPa NW 37.0 km/h 37.0 km/h 78 % 0.0 mm 0.0 W/m2 CLR
02:58 5.0 °C 1.5 °C 1023.9 hPa NW 33.3 km/h 33.3 km/h 78 % 0.0 mm 0.0 W/m2 CLR
03:03 5.0 °C 1.7 °C 1023.9 hPa NW 37.0 km/h 37.0 km/h 79 % 0.0 mm 0.0 W/m2 CLR
03:08 4.9 °C 1.6 °C 1023.9 hPa NW 42.6 km/h 42.6 km/h 79 % 0.0 mm 0.0 W/m2 CLR
03:13 4.9 °C 1.6 °C 1023.9 hPa NW 38.9 km/h 38.9 km/h 79 % 0.0 mm 0.0 W/m2 CLR
03:18 4.9 °C 1.6 °C 1023.9 hPa NW 35.2 km/h 35.2 km/h 79 % 0.0 mm 0.0 W/m2 CLR
03:23 4.8 °C 1.7 °C 1023.9 hPa NW 33.3 km/h 33.3 km/h 80 % 0.0 mm 0.0 W/m2 CLR
03:28 4.7 °C 1.6 °C 1023.9 hPa NW 33.3 km/h 33.3 km/h 80 % 0.0 mm 0.0 W/m2 CLR
03:33 4.7 °C 1.5 °C 1023.9 hPa NW 22.2 km/h 22.2 km/h 80 % 0.0 mm 0.0 W/m2 CLR
03:38 4.6 °C 1.4 °C 1023.6 hPa WNW 31.5 km/h 31.5 km/h 80 % 0.0 mm 0.0 W/m2 CLR
03:43 4.5 °C 1.3 °C 1023.6 hPa WNW 18.5 km/h 18.5 km/h 80 % 0.0 mm 0.0 W/m2 CLR
03:48 4.5 °C 1.3 °C 1023.6 hPa WNW 22.2 km/h 22.2 km/h 80 % 0.0 mm 0.0 W/m2 CLR
03:53 4.4 °C 1.3 °C 1023.6 hPa WNW 37.0 km/h 37.0 km/h 80 % 0.0 mm 0.0 W/m2 CLR
03:58 4.4 °C 1.2 °C 1023.2 hPa WNW 27.8 km/h 27.8 km/h 80 % 0.0 mm 0.0 W/m2 CLR
04:03 4.3 °C 1.2 °C 1023.2 hPa WNW 20.4 km/h 22.8 km/h 80 % 0.0 mm 0.0 W/m2 CLR
04:08 4.3 °C 1.2 °C 1023.2 hPa NW 24.1 km/h 24.1 km/h 80 % 0.0 mm 0.0 W/m2 CLR
04:14 4.3 °C 1.2 °C 1023.2 hPa NW 27.8 km/h 27.8 km/h 80 % 0.0 mm 0.0 W/m2 CLR
04:19 4.4 °C 1.3 °C 1023.2 hPa NW 29.6 km/h 29.6 km/h 80 % 0.0 mm 0.0 W/m2 CLR
04:24 4.4 °C 1.1 °C 1023.2 hPa WNW 29.6 km/h 29.6 km/h 79 % 0.0 mm 0.0 W/m2 CLR
04:29 4.5 °C 1.2 °C 1023.2 hPa WNW 31.5 km/h 31.5 km/h 79 % 0.0 mm 0.0 W/m2 CLR
04:34 4.4 °C 1.1 °C 1023.2 hPa WNW 29.0 km/h 29.0 km/h 79 % 0.0 mm 0.0 W/m2 CLR
04:39 4.3 °C 1.2 °C 1023.2 hPa WNW 31.5 km/h 31.5 km/h 80 % 0.0 mm 0.0 W/m2 CLR
04:44 4.3 °C 1.1 °C 1023.2 hPa WNW 30.6 km/h 30.6 km/h 80 % 0.0 mm 0.0 W/m2 CLR
04:49 4.3 °C 1.1 °C 1023.2 hPa WNW 25.9 km/h 25.9 km/h 80 % 0.0 mm 0.0 W/m2 CLR
04:54 4.1 °C 1.2 °C 1023.2 hPa WNW 25.9 km/h 25.9 km/h 81 % 0.0 mm 0.0 W/m2 CLR
04:59 4.0 °C 1.1 °C 1023.2 hPa WNW 14.8 km/h 14.8 km/h 81 % 0.0 mm 0.0 W/m2 CLR
05:04 3.9 °C 1.0 °C 1023.2 hPa WNW 17.7 km/h 17.7 km/h 81 % 0.0 mm 0.0 W/m2 CLR
05:09 3.9 °C 1.2 °C 1023.2 hPa WNW 18.5 km/h 18.5 km/h 82 % 0.0 mm 0.0 W/m2 CLR
05:14 4.0 °C 1.1 °C 1023.2 hPa West 18.5 km/h 18.5 km/h 81 % 0.0 mm 0.0 W/m2 CLR
05:19 4.1 °C 1.2 °C 1023.2 hPa WNW 20.4 km/h 20.4 km/h 81 % 0.0 mm 0.0 W/m2 CLR
05:24 4.1 °C 1.2 °C 1023.6 hPa West 18.5 km/h 18.5 km/h 81 % 0.0 mm 0.0 W/m2 CLR
05:29 4.1 °C 1.3 °C 1023.2 hPa West 20.4 km/h 20.4 km/h 82 % 0.0 mm 0.0 W/m2 CLR
05:34 4.1 °C 1.3 °C 1023.2 hPa West 20.4 km/h 20.4 km/h 82 % 0.0 mm 0.0 W/m2 CLR
05:39 4.2 °C 1.4 °C 1023.2 hPa West 25.9 km/h 25.9 km/h 82 % 0.0 mm 0.0 W/m2 CLR
05:44 4.1 °C 1.3 °C 1023.2 hPa WNW 25.9 km/h 25.9 km/h 82 % 0.0 mm 0.0 W/m2 CLR
05:49 4.1 °C 1.3 °C 1023.2 hPa WNW 20.4 km/h 20.4 km/h 82 % 0.0 mm 0.0 W/m2 CLR
05:54 4.1 °C 1.3 °C 1023.2 hPa WNW 18.5 km/h 18.5 km/h 82 % 0.0 mm 0.0 W/m2 CLR
05:59 4.0 °C 1.2 °C 1023.2 hPa WNW 24.1 km/h 24.1 km/h 82 % 0.0 mm 0.0 W/m2 CLR
06:04 4.0 °C 1.2 °C 1023.2 hPa WNW 24.1 km/h 24.1 km/h 82 % 0.0 mm 0.0 W/m2 CLR
06:09 4.0 °C 1.2 °C 1023.2 hPa WNW 20.4 km/h 20.4 km/h 82 % 0.0 mm 0.0 W/m2 CLR
06:14 4.0 °C 1.2 °C 1023.6 hPa WNW 22.5 km/h 22.5 km/h 82 % 0.0 mm 0.0 W/m2 CLR
06:19 4.1 °C 1.3 °C 1023.2 hPa WNW 18.5 km/h 18.5 km/h 82 % 0.0 mm 0.0 W/m2 CLR
06:24 4.1 °C 1.3 °C 1023.2 hPa WNW 22.2 km/h 22.2 km/h 82 % 0.0 mm 0.0 W/m2 CLR
06:29 4.1 °C 1.3 °C 1023.2 hPa WNW 25.9 km/h 25.9 km/h 82 % 0.0 mm 0.0 W/m2 CLR
06:34 4.2 °C 1.2 °C 1023.2 hPa WNW 18.5 km/h 18.5 km/h 81 % 0.0 mm 0.0 W/m2 CLR
06:39 4.2 °C 1.2 °C 1023.6 hPa WNW 29.6 km/h 29.6 km/h 81 % 0.0 mm 0.0 W/m2 CLR
06:44 4.3 °C 1.3 °C 1023.6 hPa WNW 20.4 km/h 20.4 km/h 81 % 0.0 mm 0.0 W/m2 CLR
06:49 4.2 °C 1.2 °C 1023.6 hPa WNW 16.7 km/h 16.7 km/h 81 % 0.0 mm 0.0 W/m2 CLR
06:54 4.2 °C 1.2 °C 1023.6 hPa WNW 18.5 km/h 18.5 km/h 81 % 0.0 mm 0.0 W/m2 CLR
06:59 4.2 °C 1.2 °C 1023.6 hPa WNW 13.0 km/h 13.0 km/h 81 % 0.0 mm 0.0 W/m2 CLR
07:04 4.2 °C 1.2 °C 1023.6 hPa WNW 11.3 km/h 11.3 km/h 81 % 0.0 mm 0.0 W/m2 CLR
07:09 4.2 °C 1.2 °C 1023.6 hPa Calm     81 % 0.0 mm 0.0 W/m2 CLR
07:14 4.1 °C 1.1 °C 1023.6 hPa WNW 9.7 km/h 9.7 km/h 81 % 0.0 mm 0.0 W/m2 CLR
07:19 4.0 °C 1.1 °C 1023.6 hPa WNW 11.1 km/h 11.1 km/h 81 % 0.0 mm 0.0 W/m2 CLR
07:24 4.0 °C 1.1 °C 1023.6 hPa WNW 11.1 km/h 11.1 km/h 81 % 0.0 mm 0.0 W/m2 CLR
07:29 3.9 °C 1.1 °C 1023.6 hPa WNW 14.5 km/h 14.5 km/h 82 % 0.0 mm 0.0 W/m2 CLR
07:34 3.9 °C 1.2 °C 1023.2 hPa WNW 16.7 km/h 16.7 km/h 82 % 0.0 mm 0.0 W/m2 CLR
07:39 4.1 °C 1.1 °C 1023.2 hPa WNW 18.5 km/h 18.5 km/h 81 % 0.0 mm 0.0 W/m2 CLR
07:44 4.1 °C 1.2 °C 1023.2 hPa West 18.5 km/h 18.5 km/h 81 % 0.0 mm 0.0 W/m2 CLR
07:49 4.1 °C 1.2 °C 1023.6 hPa West 18.5 km/h 18.5 km/h 81 % 0.0 mm 0.0 W/m2 CLR
07:54 4.2 °C 1.2 °C 1023.2 hPa West 18.5 km/h 18.5 km/h 81 % 0.0 mm 0.0 W/m2 CLR
07:59 4.2 °C 1.1 °C 1023.6 hPa West 16.7 km/h 16.7 km/h 80 % 0.0 mm 0.0 W/m2 CLR
08:04 4.2 °C 1.2 °C 1023.6 hPa West 16.7 km/h 16.7 km/h 81 % 0.0 mm 7.0 W/m2 OVC
08:09 4.1 °C 1.2 °C 1023.2 hPa West 16.1 km/h 16.1 km/h 81 % 0.0 mm 9.0 W/m2 BKN
08:14 4.1 °C 1.2 °C 1023.6 hPa West 14.8 km/h 14.8 km/h 81 % 0.0 mm 11.0 W/m2 BKN
08:19 4.2 °C 1.2 °C 1023.6 hPa West 16.7 km/h 16.7 km/h 81 % 0.0 mm 12.0 W/m2 BKN
08:24 4.1 °C 0.9 °C 1023.6 hPa WSW 4.8 km/h 4.8 km/h 80 % 0.0 mm 16.0 W/m2 BKN
08:29 3.8 °C 0.8 °C 1023.6 hPa WSW 1.9 km/h 1.9 km/h 81 % 0.0 mm 18.0 W/m2 BKN
08:34 3.7 °C 0.9 °C 1023.6 hPa SW 3.7 km/h 3.7 km/h 82 % 0.0 mm 21.0 W/m2 BKN
08:39 3.7 °C 0.9 °C 1023.2 hPa SW 5.6 km/h   82 % 0.0 mm 30.0 W/m2 BKN
08:44 3.8 °C 1.2 °C 1023.2 hPa SW 1.9 km/h   83 % 0.0 mm 42.0 W/m2 BKN
08:49 4.2 °C 1.4 °C 1023.2 hPa WSW 16.7 km/h 16.7 km/h 82 % 0.0 mm 54.0 W/m2 SCT
08:54 4.6 °C 1.6 °C 1023.2 hPa West 14.8 km/h 14.8 km/h 81 % 0.0 mm 70.0 W/m2 FEW
08:59 4.9 °C 1.8 °C 1023.2 hPa West 16.7 km/h 16.7 km/h 80 % 0.0 mm 84.0 W/m2 FEW
09:04 5.2 °C 1.8 °C 1023.2 hPa West 12.9 km/h 12.9 km/h 79 % 0.0 mm 98.0 W/m2 FEW
09:09 5.3 °C 1.8 °C 1023.2 hPa WNW 14.8 km/h 14.8 km/h 78 % 0.0 mm 116.0 W/m2 CLR
09:14 5.3 °C 1.8 °C 1023.2 hPa WNW 14.5 km/h 14.5 km/h 78 % 0.0 mm 123.0 W/m2 CLR
09:19 5.4 °C 1.9 °C 1023.2 hPa WNW 4.8 km/h 4.8 km/h 78 % 0.0 mm 148.0 W/m2 CLR
09:24 5.7 °C 2.0 °C 1023.2 hPa WNW 1.9 km/h 1.9 km/h 77 % 0.0 mm 165.0 W/m2 CLR
09:30 5.9 °C 2.0 °C 1023.2 hPa WSW 5.6 km/h   76 % 0.0 mm 84.0 W/m2 CLR
09:35 6.1 °C 2.2 °C 1022.9 hPa Calm     76 % 0.0 mm 206.0 W/m2 CLR
09:40 6.3 °C 2.2 °C 1022.9 hPa Calm     75 % 0.0 mm 221.0 W/m2 CLR
09:45 6.3 °C 2.1 °C 1022.9 hPa SW 5.6 km/h 6.4 km/h 74 % 0.0 mm 237.0 W/m2 CLR
09:50 6.4 °C 2.1 °C 1022.9 hPa WSW 13.0 km/h 13.0 km/h 74 % 0.0 mm 264.0 W/m2 CLR
09:55 6.4 °C 2.1 °C 1022.9 hPa West 22.2 km/h 22.2 km/h 74 % 0.0 mm 271.0 W/m2 CLR
10:00 6.3 °C 1.8 °C 1022.9 hPa West 25.9 km/h 25.9 km/h 73 % 0.0 mm 292.0 W/m2 CLR
10:05 6.5 °C 2.0 °C 1022.9 hPa West 13.0 km/h 13.0 km/h 73 % 0.0 mm 299.0 W/m2 CLR
10:10 6.7 °C 2.0 °C 1022.9 hPa West 13.0 km/h 13.0 km/h 72 % 0.0 mm 309.0 W/m2 CLR
10:15 6.8 °C 2.1 °C 1022.6 hPa West 14.8 km/h 14.8 km/h 72 % 0.0 mm 325.0 W/m2 CLR
10:20 6.9 °C 2.0 °C 1022.6 hPa West 18.5 km/h 18.5 km/h 71 % 0.0 mm 338.0 W/m2 CLR
10:25 6.9 °C 1.8 °C 1022.6 hPa West 22.2 km/h 22.2 km/h 70 % 0.0 mm 348.0 W/m2 CLR
10:30 7.0 °C 2.1 °C 1022.2 hPa West 18.5 km/h 18.5 km/h 71 % 0.0 mm 360.0 W/m2 CLR
10:35 7.1 °C 2.2 °C 1022.2 hPa WNW 14.8 km/h 14.8 km/h 71 % 0.0 mm 374.0 W/m2 CLR
10:40 7.1 °C 2.0 °C 1022.2 hPa WNW 29.6 km/h 29.6 km/h 70 % 0.0 mm 387.0 W/m2 CLR
10:45 7.1 °C 1.9 °C 1022.2 hPa WNW 16.7 km/h 16.7 km/h 70 % 0.0 mm 396.0 W/m2 CLR
10:50 7.3 °C 1.9 °C 1022.2 hPa WNW 14.8 km/h 14.8 km/h 69 % 0.0 mm 406.0 W/m2 CLR
10:55 7.3 °C 2.2 °C 1022.2 hPa WNW 18.5 km/h 18.5 km/h 70 % 0.0 mm 420.0 W/m2 CLR
11:00 7.4 °C 2.3 °C 1022.2 hPa WNW 16.7 km/h 16.7 km/h 70 % 0.0 mm 431.0 W/m2 CLR
11:05 7.6 °C 2.5 °C 1022.2 hPa WNW 11.3 km/h 11.3 km/h 70 % 0.0 mm 441.0 W/m2 CLR
11:10 7.8 °C 2.2 °C 1021.9 hPa West 20.4 km/h 20.4 km/h 68 % 0.0 mm 450.0 W/m2 CLR
11:15 7.9 °C 2.2 °C 1021.9 hPa WNW 29.6 km/h 29.6 km/h 67 % 0.0 mm 462.0 W/m2 CLR
11:20 7.9 °C 2.3 °C 1021.9 hPa WNW 20.4 km/h 20.4 km/h 68 % 0.0 mm 469.0 W/m2 CLR
11:25 7.9 °C 2.2 °C 1021.9 hPa WNW 25.9 km/h 25.9 km/h 67 % 0.0 mm 478.0 W/m2 CLR
11:30 8.0 °C 2.2 °C 1021.9 hPa WNW 20.4 km/h 20.4 km/h 67 % 0.0 mm 487.0 W/m2 CLR
11:35 8.1 °C 1.7 °C 1021.9 hPa WNW 20.4 km/h 20.4 km/h 64 % 0.0 mm 496.0 W/m2 CLR
11:40 8.1 °C 2.1 °C 1021.9 hPa West 27.8 km/h 27.8 km/h 66 % 0.0 mm 504.0 W/m2 CLR
11:45 8.2 °C 2.0 °C 1021.9 hPa WNW 22.2 km/h 22.2 km/h 65 % 0.0 mm 510.0 W/m2 CLR
11:50 8.3 °C 1.9 °C 1021.9 hPa NW 22.5 km/h 22.5 km/h 64 % 0.0 mm 519.0 W/m2 CLR
11:55 8.6 °C 2.3 °C 1021.6 hPa WNW 18.5 km/h 18.5 km/h 65 % 0.0 mm 524.0 W/m2 CLR
12:00 8.6 °C 2.6 °C 1021.6 hPa WNW 18.5 km/h 18.5 km/h 66 % 0.0 mm 531.0 W/m2 CLR
12:05 8.7 °C 1.8 °C 1021.6 hPa WNW 20.4 km/h 20.4 km/h 62 % 0.0 mm 540.0 W/m2 CLR
12:10 8.7 °C 1.6 °C 1021.6 hPa WNW 18.5 km/h 18.5 km/h 61 % 0.0 mm 543.0 W/m2 CLR
12:15 8.9 °C 1.8 °C 1021.6 hPa WNW 24.1 km/h 24.1 km/h 61 % 0.0 mm 547.0 W/m2 CLR
12:20 9.0 °C 1.9 °C 1021.6 hPa WNW 20.4 km/h 20.4 km/h 61 % 0.0 mm 554.0 W/m2 CLR
12:25 9.1 °C 1.9 °C 1021.2 hPa NW 14.8 km/h 14.8 km/h 61 % 0.0 mm 557.0 W/m2 CLR
12:30 9.3 °C 1.7 °C 1021.2 hPa WNW 22.5 km/h 22.5 km/h 59 % 0.0 mm 561.0 W/m2 CLR
12:35 9.3 °C 2.2 °C 1020.9 hPa WNW 17.7 km/h 17.7 km/h 61 % 0.0 mm 563.0 W/m2 CLR
12:40 9.4 °C 1.8 °C 1020.9 hPa WNW 16.7 km/h 16.7 km/h 59 % 0.0 mm 570.0 W/m2 CLR
12:45 9.6 °C 1.9 °C 1020.9 hPa WNW 18.5 km/h 18.5 km/h 59 % 0.0 mm 571.0 W/m2 CLR
12:50 9.7 °C 1.8 °C 1020.5 hPa NW 22.2 km/h 22.2 km/h 58 % 0.0 mm 575.0 W/m2 CLR
12:55 9.7 °C 1.8 °C 1020.5 hPa WNW 14.8 km/h 14.8 km/h 58 % 0.0 mm 577.0 W/m2 CLR
13:00 9.8 °C 1.4 °C 1020.5 hPa WNW 20.4 km/h 20.4 km/h 56 % 0.0 mm 578.0 W/m2 CLR
13:05 9.8 °C 1.4 °C 1020.5 hPa WNW 16.7 km/h 16.7 km/h 56 % 0.0 mm 577.0 W/m2 CLR
13:10 9.9 °C 1.3 °C 1020.5 hPa WNW 18.5 km/h 18.5 km/h 55 % 0.0 mm 580.0 W/m2 CLR
13:15 10.1 °C 1.4 °C 1020.5 hPa WNW 22.2 km/h 22.2 km/h 55 % 0.0 mm 582.0 W/m2 CLR
13:20 10.1 °C 0.9 °C 1020.2 hPa WNW 13.0 km/h 13.0 km/h 53 % 0.0 mm 580.0 W/m2 CLR
13:25 10.2 °C 0.7 °C 1020.2 hPa WNW 16.7 km/h 16.7 km/h 52 % 0.0 mm 580.0 W/m2 CLR
13:30 10.2 °C 1.1 °C 1020.2 hPa WNW 17.7 km/h 17.7 km/h 53 % 0.0 mm 580.0 W/m2 CLR
13:35 10.4 °C 1.2 °C 1020.2 hPa WNW 11.1 km/h 11.1 km/h 53 % 0.0 mm 578.0 W/m2 CLR
13:40 10.4 °C 1.0 °C 1019.9 hPa WNW 13.0 km/h 13.0 km/h 52 % 0.0 mm 578.0 W/m2 CLR
13:45 10.7 °C 1.0 °C 1019.9 hPa NW 3.7 km/h 3.7 km/h 51 % 0.0 mm 578.0 W/m2 CLR
13:50 10.9 °C 1.1 °C 1019.9 hPa WNW 16.1 km/h 16.1 km/h 51 % 0.0 mm 577.0 W/m2 CLR
13:55 10.8 °C 0.8 °C 1019.5 hPa WNW 24.1 km/h 24.1 km/h 50 % 0.0 mm 573.0 W/m2 CLR
14:00 10.9 °C 1.1 °C 1019.5 hPa WNW 19.3 km/h 19.3 km/h 51 % 0.0 mm 568.0 W/m2 CLR
14:05 11.0 °C 1.2 °C 1019.5 hPa WNW 16.7 km/h 16.7 km/h 51 % 0.0 mm 566.0 W/m2 CLR
14:10 11.1 °C 0.7 °C 1019.2 hPa NW 18.5 km/h 18.5 km/h 49 % 0.0 mm 561.0 W/m2 CLR
14:15 11.1 °C 1.3 °C 1019.2 hPa NW 18.5 km/h 18.5 km/h 51 % 0.0 mm 557.0 W/m2 CLR
14:20 11.2 °C 0.9 °C 1019.2 hPa NW 18.5 km/h 18.5 km/h 49 % 0.0 mm 552.0 W/m2 CLR
14:25 11.2 °C 0.6 °C 1018.8 hPa NW 16.7 km/h 16.7 km/h 48 % 0.0 mm 548.0 W/m2 CLR
14:30 11.4 °C 0.8 °C 1018.8 hPa WNW 14.8 km/h 14.8 km/h 48 % 0.0 mm 543.0 W/m2 CLR
14:35 11.6 °C 0.6 °C 1018.8 hPa WNW 14.8 km/h 14.8 km/h 47 % 0.0 mm 534.0 W/m2 CLR
14:40 11.6 °C 0.9 °C 1018.8 hPa NW 1.9 km/h 1.9 km/h 48 % 0.0 mm 531.0 W/m2 CLR
14:45 11.6 °C 0.1 °C 1018.8 hPa NNW 16.7 km/h 16.7 km/h 45 % 0.0 mm 519.0 W/m2 CLR
14:50 11.6 °C 0.7 °C 1018.5 hPa NNW 9.3 km/h 9.3 km/h 47 % 0.0 mm 512.0 W/m2 CLR
14:55 11.7 °C 0.1 °C 1018.5 hPa NNW 14.5 km/h 14.5 km/h 45 % 0.0 mm 504.0 W/m2 CLR
15:00 11.8 °C 0.5 °C 1018.5 hPa NW 8.0 km/h 8.0 km/h 46 % 0.0 mm 496.0 W/m2 CLR
15:05 11.9 °C 0.3 °C 1018.2 hPa NW 14.5 km/h 14.5 km/h 45 % 0.0 mm 489.0 W/m2 CLR
15:11 12.0 °C -0.2 °C 1018.2 hPa NNW 1.9 km/h   43 % 0.0 mm 480.0 W/m2 CLR
15:16 12.1 °C -0.1 °C 1018.2 hPa NNW 13.0 km/h 13.0 km/h 43 % 0.0 mm 468.0 W/m2 CLR
15:20 12.1 °C -0.2 °C 1018.2 hPa NW 5.6 km/h 5.6 km/h 43 % 0.0 mm 459.0 W/m2 CLR
15:24 12.1 °C -0.1 °C 1018.2 hPa NNW 9.7 km/h 9.7 km/h 43 % 0.0 mm 452.0 W/m2 CLR
15:29 12.3 °C -0.3 °C 1017.8 hPa NNW 13.0 km/h 13.0 km/h 42 % 0.0 mm 443.0 W/m2 CLR
15:34 12.2 °C -0.3 °C 1017.8 hPa Calm     42 % 0.0 mm 432.0 W/m2 CLR
15:39 12.3 °C -0.6 °C 1017.8 hPa Calm     41 % 0.0 mm 420.0 W/m2 CLR
15:44 12.4 °C -0.8 °C 1017.8 hPa Calm     40 % 0.0 mm 413.0 W/m2 CLR
15:49 12.7 °C 0.1 °C 1017.8 hPa Calm     42 % 0.0 mm 399.0 W/m2 CLR
15:54 12.7 °C -0.3 °C 1017.8 hPa NNW 1.9 km/h 1.9 km/h 41 % 0.0 mm 381.0 W/m2 CLR
15:59 12.5 °C -0.4 °C 1017.5 hPa Calm     41 % 0.0 mm 327.0 W/m2 CLR
16:04 12.6 °C -0.7 °C 1017.5 hPa Calm     40 % 0.0 mm 359.0 W/m2 CLR
16:09 12.8 °C -0.4 °C 1017.5 hPa Calm     40 % 0.0 mm 348.0 W/m2 CLR
16:14 12.8 °C -0.1 °C 1017.5 hPa Calm     41 % 0.0 mm 336.0 W/m2 CLR
16:19 12.9 °C -0.7 °C 1017.5 hPa Calm     39 % 0.0 mm 322.0 W/m2 CLR
16:24 13.1 °C -0.3 °C 1017.5 hPa Calm     40 % 0.0 mm 315.0 W/m2 CLR
16:29 13.1 °C -1.3 °C 1017.5 hPa Calm     37 % 0.0 mm 299.0 W/m2 CLR
16:32 13.1 °C -0.9 °C 1017.5 hPa Calm     38 % 0.0 mm 278.0 W/m2 CLR
16:37 13.0 °C -0.3 °C 1017.2 hPa Calm     40 % 0.0 mm 281.0 W/m2 CLR
16:42 13.0 °C -0.7 °C 1017.2 hPa Calm     39 % 0.0 mm 269.0 W/m2 CLR
16:47 13.1 °C -0.6 °C 1017.2 hPa Calm     39 % 0.0 mm 251.0 W/m2 CLR
16:52 13.1 °C -0.3 °C 1017.2 hPa Calm     40 % 0.0 mm 237.0 W/m2 CLR
16:57 12.9 °C -0.3 °C 1017.2 hPa Calm     40 % 0.0 mm 207.0 W/m2 CLR
17:02 12.9 °C -0.4 °C 1017.2 hPa Calm     40 % 0.0 mm 197.0 W/m2 CLR
17:07 12.8 °C -0.5 °C 1017.2 hPa Calm     40 % 0.0 mm 127.0 W/m2 CLR
17:12 12.5 °C -0.8 °C 1017.2 hPa Calm     40 % 0.0 mm 81.0 W/m2 CLR
17:17 12.3 °C -0.9 °C 1016.8 hPa Calm     40 % 0.0 mm 100.0 W/m2 CLR
17:22 12.2 °C -0.7 °C 1016.8 hPa Calm     41 % 0.0 mm 70.0 W/m2 CLR
17:27 12.0 °C -0.6 °C 1016.8 hPa Calm     42 % 0.0 mm 40.0 W/m2 BKN
17:32 11.8 °C -0.7 °C 1016.8 hPa Calm     42 % 0.0 mm 39.0 W/m2 BKN
17:37 11.6 °C -0.6 °C 1016.8 hPa Calm     43 % 0.0 mm 40.0 W/m2 BKN
17:42 11.3 °C -0.2 °C 1017.2 hPa Calm     45 % 0.0 mm 44.0 W/m2 BKN
17:47 11.2 °C -0.3 °C 1017.2 hPa Calm     45 % 0.0 mm 54.0 W/m2 SCT
17:52 11.1 °C -0.2 °C 1016.8 hPa Calm     46 % 0.0 mm 35.0 W/m2 BKN
17:57 10.9 °C -0.2 °C 1017.2 hPa Calm     46 % 0.0 mm 25.0 W/m2 BKN
18:02 10.8 °C -0.1 °C 1017.2 hPa Calm     47 % 0.0 mm 21.0 W/m2 BKN
18:07 10.6 °C -0.3 °C 1016.8 hPa Calm     47 % 0.0 mm 16.0 W/m2 BKN
18:12 10.4 °C -0.2 °C 1017.2 hPa Calm     48 % 0.0 mm 12.0 W/m2 BKN
18:17 10.2 °C 0.2 °C 1017.2 hPa Calm     50 % 0.0 mm 7.0 W/m2 BKN
18:22 10.0 °C 0.1 °C 1017.2 hPa Calm     50 % 0.0 mm 5.0 W/m2 OVC
18:27 9.8 °C -0.1 °C 1017.2 hPa Calm     50 % 0.0 mm 0.0 W/m2 OVC
18:32 9.6 °C 0.2 °C 1017.2 hPa Calm     52 % 0.0 mm 0.0 W/m2 OVC
18:37 9.4 °C -0.4 °C 1017.2 hPa Calm     50 % 0.0 mm 0.0 W/m2 CLR
18:42 9.4 °C -0.5 °C 1017.2 hPa Calm     50 % 0.0 mm 0.0 W/m2 CLR
18:47 9.3 °C 0.5 °C 1017.2 hPa Calm     54 % 0.0 mm 0.0 W/m2 CLR
18:52 8.9 °C 0.4 °C 1017.2 hPa Calm     55 % 0.0 mm 0.0 W/m2 CLR
18:57 8.6 °C 0.6 °C 1017.2 hPa Calm     57 % 0.0 mm 0.0 W/m2 CLR
19:02 8.2 °C 0.7 °C 1017.2 hPa Calm     59 % 0.0 mm 0.0 W/m2 CLR
19:07 7.9 °C 1.3 °C 1017.2 hPa Calm     63 % 0.0 mm 0.0 W/m2 CLR
19:12 7.5 °C 1.1 °C 1017.2 hPa Calm     64 % 0.0 mm 0.0 W/m2 CLR
19:17 7.2 °C 1.0 °C 1017.2 hPa Calm     65 % 0.0 mm 0.0 W/m2 CLR
19:22 6.8 °C 0.9 °C 1017.2 hPa Calm     66 % 0.0 mm 0.0 W/m2 CLR
19:27 6.5 °C 1.0 °C 1017.2 hPa Calm     68 % 0.0 mm 0.0 W/m2 CLR
19:32 6.1 °C 1.0 °C 1017.2 hPa Calm     70 % 0.0 mm 0.0 W/m2 CLR
19:37 5.8 °C 0.8 °C 1017.2 hPa Calm     70 % 0.0 mm 0.0 W/m2 CLR
19:42 5.7 °C 0.9 °C 1017.5 hPa Calm     71 % 0.0 mm 0.0 W/m2 CLR
19:47 5.6 °C 1.1 °C 1017.2 hPa Calm     73 % 0.0 mm 0.0 W/m2 CLR
19:52 5.2 °C 0.9 °C 1017.5 hPa Calm     74 % 0.0 mm 0.0 W/m2 CLR
19:57 5.0 °C 0.9 °C 1017.5 hPa Calm     75 % 0.0 mm 0.0 W/m2 CLR
20:02 4.8 °C 0.9 °C 1017.2 hPa Calm     76 % 0.0 mm 0.0 W/m2 CLR
20:07 4.6 °C 0.9 °C 1017.5 hPa Calm     77 % 0.0 mm 0.0 W/m2 CLR
20:12 4.5 °C 0.8 °C 1017.5 hPa Calm     77 % 0.0 mm 0.0 W/m2 CLR
20:17 4.4 °C 0.8 °C 1017.5 hPa Calm     77 % 0.0 mm 0.0 W/m2 CLR
20:22 4.3 °C 0.8 °C 1017.5 hPa Calm     78 % 0.0 mm 0.0 W/m2 CLR
20:27 4.2 °C 0.5 °C 1017.5 hPa Calm     77 % 0.0 mm 0.0 W/m2 CLR
20:32 3.9 °C 0.4 °C 1017.5 hPa Calm     78 % 0.0 mm 0.0 W/m2 CLR
20:37 3.8 °C 0.4 °C 1017.5 hPa Calm     79 % 0.0 mm 0.0 W/m2 CLR
20:42 3.6 °C 0.3 °C 1017.5 hPa Calm     79 % 0.0 mm 0.0 W/m2 CLR
20:47 3.4 °C 0.3 °C 1017.5 hPa Calm     80 % 0.0 mm 0.0 W/m2 CLR
20:52 3.3 °C 0.3 °C 1017.5 hPa Calm     81 % 0.0 mm 0.0 W/m2 CLR
20:57 3.2 °C 0.3 °C 1017.5 hPa Calm     81 % 0.0 mm 0.0 W/m2 CLR
21:02 3.2 °C 0.1 °C 1017.5 hPa Calm     80 % 0.0 mm 0.0 W/m2 CLR
21:07 3.1 °C 0.2 °C 1017.5 hPa Calm     81 % 0.0 mm 0.0 W/m2 CLR
21:12 3.1 °C 0.2 °C 1017.5 hPa Calm     81 % 0.0 mm 0.0 W/m2 CLR
21:17 3.1 °C 0.2 °C 1017.5 hPa Calm     81 % 0.0 mm 0.0 W/m2 CLR
21:22 3.1 °C 0.3 °C 1017.5 hPa Calm     82 % 0.0 mm 0.0 W/m2 CLR
21:27 3.1 °C 0.3 °C 1017.2 hPa Calm     82 % 0.0 mm 0.0 W/m2 CLR
21:32 3.0 °C 0.2 °C 1017.2 hPa Calm     82 % 0.0 mm 0.0 W/m2 CLR
21:37 3.1 °C 0.4 °C 1016.8 hPa Calm     83 % 0.0 mm 0.0 W/m2 CLR
21:43 3.1 °C 0.5 °C 1016.8 hPa Calm     83 % 0.0 mm 0.0 W/m2 CLR
21:48 3.3 °C 0.7 °C 1016.8 hPa Calm     83 % 0.0 mm 0.0 W/m2 CLR
21:53 3.4 °C 0.7 °C 1016.8 hPa Calm     82 % 0.0 mm 0.0 W/m2 CLR
21:58 3.4 °C 0.5 °C 1016.8 hPa Calm     81 % 0.0 mm 0.0 W/m2 CLR
22:03 3.3 °C 0.4 °C 1016.8 hPa Calm     81 % 0.0 mm 0.0 W/m2 CLR
22:08 3.3 °C 0.5 °C 1016.8 hPa Calm     82 % 0.0 mm 0.0 W/m2 CLR
22:13 3.3 °C 0.5 °C 1016.8 hPa Calm     82 % 0.0 mm 0.0 W/m2 CLR
22:18 3.4 °C 0.6 °C 1016.5 hPa Calm     82 % 0.0 mm 0.0 W/m2 CLR
22:23 3.6 °C 0.7 °C 1016.8 hPa Calm     81 % 0.0 mm 0.0 W/m2 CLR
22:28 3.8 °C 0.7 °C 1016.5 hPa Calm     80 % 0.0 mm 0.0 W/m2 CLR
22:33 3.8 °C 0.8 °C 1016.5 hPa Calm     81 % 0.0 mm 0.0 W/m2 CLR
22:38 3.7 °C 0.7 °C 1016.5 hPa Calm     81 % 0.0 mm 0.0 W/m2 CLR
22:43 3.6 °C 0.6 °C 1016.5 hPa Calm     81 % 0.0 mm 0.0 W/m2 CLR
22:48 3.5 °C 0.7 °C 1016.5 hPa Calm     82 % 0.0 mm 0.0 W/m2 CLR
22:53 3.5 °C 0.7 °C 1016.5 hPa Calm     82 % 0.0 mm 0.0 W/m2 CLR
22:58 3.5 °C 0.7 °C 1016.5 hPa Calm     82 % 0.0 mm 0.0 W/m2 CLR
23:03 3.5 °C 0.7 °C 1016.5 hPa Calm     82 % 0.0 mm 0.0 W/m2 CLR
23:08 3.5 °C 0.7 °C 1016.5 hPa Calm     82 % 0.0 mm 0.0 W/m2 CLR
23:13 3.4 °C 0.8 °C 1016.5 hPa Calm     83 % 0.0 mm 0.0 W/m2 CLR
23:16 3.4 °C 0.8 °C 1016.5 hPa Calm     83 % 0.0 mm 0.0 W/m2 CLR
23:21 3.3 °C 0.7 °C 1016.5 hPa Calm     83 % 0.0 mm 0.0 W/m2 CLR
23:26 3.3 °C 0.7 °C 1016.5 hPa Calm     83 % 0.0 mm 0.0 W/m2 CLR
23:31 3.3 °C 0.7 °C 1016.5 hPa Calm     83 % 0.0 mm 0.0 W/m2 CLR
23:36 3.3 °C 0.8 °C 1016.5 hPa Calm     84 % 0.0 mm 0.0 W/m2 CLR
23:41 3.3 °C 0.7 °C 1016.5 hPa Calm     83 % 0.0 mm 0.0 W/m2 CLR
23:46 3.2 °C 0.6 °C 1016.5 hPa Calm     83 % 0.0 mm 0.0 W/m2 CLR
23:55 3.1 °C 0.5 °C 1016.5 hPa Calm     83 % 0.0 mm 0.0 W/m2 CLR
Lo Temps de Massalio
Compliments of Weather Underground - 1.25 mb